sensor_id;sensor_type;location;lat;lon;timestamp;pressure;altitude;pressure_sealevel;temperature;humidity
43621;BME280;29213;50.770;7.298;2022-12-18T00:01:03;102127.59;;;-9.42;54.01
43621;BME280;29213;50.770;7.298;2022-12-18T00:03:35;102206.00;;;-8.99;53.83
43621;BME280;29213;50.770;7.298;2022-12-18T00:06:01;102144.78;;;-9.39;54.28
43621;BME280;29213;50.770;7.298;2022-12-18T00:08:26;102082.75;;;-9.91;53.41
43621;BME280;29213;50.770;7.298;2022-12-18T00:10:52;102125.75;;;-9.74;53.70
43621;BME280;29213;50.770;7.298;2022-12-18T00:13:17;102154.13;;;-9.77;53.60
43621;BME280;29213;50.770;7.298;2022-12-18T00:15:43;102130.84;;;-9.94;54.28
43621;BME280;29213;50.770;7.298;2022-12-18T00:18:08;102196.34;;;-9.53;54.41
43621;BME280;29213;50.770;7.298;2022-12-18T00:20:38;102149.84;;;-9.77;54.50
43621;BME280;29213;50.770;7.298;2022-12-18T00:23:05;102138.66;;;-9.79;54.17
43621;BME280;29213;50.770;7.298;2022-12-18T00:25:33;102138.66;;;-9.79;54.69
43621;BME280;29213;50.770;7.298;2022-12-18T00:27:59;102157.63;;;-9.64;54.39
43621;BME280;29213;50.770;7.298;2022-12-18T00:30:25;102141.22;;;-9.82;54.61
43621;BME280;29213;50.770;7.298;2022-12-18T00:32:50;102184.28;;;-9.64;54.93
43621;BME280;29213;50.770;7.298;2022-12-18T00:35:16;102142.06;;;-9.87;54.42
43621;BME280;29213;50.770;7.298;2022-12-18T00:37:41;102052.44;;;-10.46;54.49
43621;BME280;29213;50.770;7.298;2022-12-18T00:40:07;102209.25;;;-9.52;55.01
43621;BME280;29213;50.770;7.298;2022-12-18T00:42:35;102195.50;;;-9.51;55.13
43621;BME280;29213;50.770;7.298;2022-12-18T00:45:19;102140.38;;;-9.81;55.24
43621;BME280;29213;50.770;7.298;2022-12-18T00:47:45;102158.44;;;-9.79;54.42
43621;BME280;29213;50.770;7.298;2022-12-18T00:50:10;102207.53;;;-9.50;55.02
43621;BME280;29213;50.770;7.298;2022-12-18T00:52:35;102134.28;;;-9.98;54.93
43621;BME280;29213;50.770;7.298;2022-12-18T00:55:01;102129.94;;;-9.99;55.22
43621;BME280;29213;50.770;7.298;2022-12-18T00:57:26;102158.38;;;-9.85;55.37
43621;BME280;29213;50.770;7.298;2022-12-18T00:59:52;102142.88;;;-9.92;55.63
43621;BME280;29213;50.770;7.298;2022-12-18T01:02:17;102177.31;;;-9.85;56.23
43621;BME280;29213;50.770;7.298;2022-12-18T01:04:42;102172.03;;;-10.13;56.50
43621;BME280;29213;50.770;7.298;2022-12-18T01:07:08;102174.66;;;-9.97;57.32
43621;BME280;29213;50.770;7.298;2022-12-18T01:09:33;102166.88;;;-10.02;58.51
43621;BME280;29213;50.770;7.298;2022-12-18T01:11:59;102084.25;;;-10.46;59.33
43621;BME280;29213;50.770;7.298;2022-12-18T01:14:25;102101.44;;;-10.43;59.30
43621;BME280;29213;50.770;7.298;2022-12-18T01:16:50;102129.78;;;-10.38;59.36
43621;BME280;29213;50.770;7.298;2022-12-18T01:19:15;102144.38;;;-10.37;59.72
43621;BME280;29213;50.770;7.298;2022-12-18T01:21:41;102103.94;;;-10.52;60.78
43621;BME280;29213;50.770;7.298;2022-12-18T01:24:06;102157.50;;;-10.05;60.82
43621;BME280;29213;50.770;7.298;2022-12-18T01:26:32;102148.00;;;-9.99;60.83
43621;BME280;29213;50.770;7.298;2022-12-18T01:28:58;102191.97;;;-9.71;61.26
43621;BME280;29213;50.770;7.298;2022-12-18T01:31:28;102191.16;;;-9.66;60.37
43621;BME280;29213;50.770;7.298;2022-12-18T01:33:55;102187.72;;;-9.65;60.71
43621;BME280;29213;50.770;7.298;2022-12-18T01:36:26;102192.03;;;-9.57;59.84
43621;BME280;29213;50.770;7.298;2022-12-18T01:38:52;102159.34;;;-9.68;59.46
43621;BME280;29213;50.770;7.298;2022-12-18T01:41:24;102193.00;;;-9.29;58.81
43621;BME280;29213;50.770;7.298;2022-12-18T01:43:54;102193.03;;;-9.26;58.48
43621;BME280;29213;50.770;7.298;2022-12-18T01:46:23;102180.06;;;-9.37;57.67
43621;BME280;29213;50.770;7.298;2022-12-18T01:49:00;102169.72;;;-9.49;57.85
43621;BME280;29213;50.770;7.298;2022-12-18T01:51:27;102119.78;;;-9.73;58.61
43621;BME280;29213;50.770;7.298;2022-12-18T01:53:53;102182.69;;;-9.29;58.61
43621;BME280;29213;50.770;7.298;2022-12-18T01:56:20;102129.28;;;-9.63;58.11
43621;BME280;29213;50.770;7.298;2022-12-18T01:58:52;102168.88;;;-9.36;58.04
43621;BME280;29213;50.770;7.298;2022-12-18T02:01:21;102156.84;;;-9.41;57.58
43621;BME280;29213;50.770;7.298;2022-12-18T02:03:48;102039.75;;;-10.09;58.01
43621;BME280;29213;50.770;7.298;2022-12-18T02:06:18;102155.97;;;-9.40;58.35
43621;BME280;29213;50.770;7.298;2022-12-18T02:09:07;102130.97;;;-9.60;58.96
43621;BME280;29213;50.770;7.298;2022-12-18T02:11:45;102130.13;;;-9.56;58.58
43621;BME280;29213;50.770;7.298;2022-12-18T02:14:35;102170.63;;;-9.30;58.65
43621;BME280;29213;50.770;7.298;2022-12-18T02:17:07;102181.81;;;-9.34;58.93
43621;BME280;29213;50.770;7.298;2022-12-18T02:28:09;102150.00;;;-9.19;58.66
43621;BME280;29213;50.770;7.298;2022-12-18T02:30:37;102181.03;;;-8.96;58.16
43621;BME280;29213;50.770;7.298;2022-12-18T02:33:06;102156.91;;;-9.12;57.87
43621;BME280;29213;50.770;7.298;2022-12-18T02:35:36;102132.75;;;-9.42;58.24
43621;BME280;29213;50.770;7.298;2022-12-18T02:38:03;102156.00;;;-9.39;59.16
43621;BME280;29213;50.770;7.298;2022-12-18T02:40:30;102191.34;;;-9.14;59.28
43621;BME280;29213;50.770;7.298;2022-12-18T02:43:02;102199.94;;;-9.12;58.77
43621;BME280;29213;50.770;7.298;2022-12-18T02:45:28;102161.97;;;-9.44;59.01
43621;BME280;29213;50.770;7.298;2022-12-18T02:47:53;102141.34;;;-9.49;59.04
43621;BME280;29213;50.770;7.298;2022-12-18T02:50:43;102181.84;;;-9.14;58.40
43621;BME280;29213;50.770;7.298;2022-12-18T02:53:29;102186.16;;;-9.13;58.19
43621;BME280;29213;50.770;7.298;2022-12-18T02:56:05;102178.41;;;-9.24;57.66
43621;BME280;29213;50.770;7.298;2022-12-18T02:58:52;102191.31;;;-9.13;57.83
43621;BME280;29213;50.770;7.298;2022-12-18T03:01:54;102187.00;;;-9.15;57.47
43621;BME280;29213;50.770;7.298;2022-12-18T03:04:30;102154.25;;;-9.47;56.23
43621;BME280;29213;50.770;7.298;2022-12-18T03:07:02;102143.00;;;-9.64;56.89
43621;BME280;29213;50.770;7.298;2022-12-18T03:09:32;102141.16;;;-9.94;57.36
43621;BME280;29213;50.770;7.298;2022-12-18T03:12:06;102094.56;;;-10.36;57.50
43621;BME280;29213;50.770;7.298;2022-12-18T03:14:56;102165.25;;;-9.92;58.31
43621;BME280;29213;50.770;7.298;2022-12-18T03:17:26;102060.97;;;-10.57;58.09
43621;BME280;29213;50.770;7.298;2022-12-18T03:19:53;102079.06;;;-10.44;58.71
43621;BME280;29213;50.770;7.298;2022-12-18T03:22:23;102106.72;;;-10.18;59.11
43621;BME280;29213;50.770;7.298;2022-12-18T03:24:50;102065.34;;;-10.45;59.67
43621;BME280;29213;50.770;7.298;2022-12-18T03:27:20;102148.00;;;-10.06;60.11
43621;BME280;29213;50.770;7.298;2022-12-18T03:30:08;102145.41;;;-9.99;60.15
43621;BME280;29213;50.770;7.298;2022-12-18T03:32:44;102163.56;;;-9.78;59.80
43621;BME280;29213;50.770;7.298;2022-12-18T03:35:18;102160.16;;;-9.73;60.00
43621;BME280;29213;50.770;7.298;2022-12-18T03:37:46;102130.00;;;-9.95;60.31
43621;BME280;29213;50.770;7.298;2022-12-18T03:40:11;102125.69;;;-10.05;60.72
43621;BME280;29213;50.770;7.298;2022-12-18T03:45:27;102130.81;;;-9.99;60.86
43621;BME280;29213;50.770;7.298;2022-12-18T03:50:28;102148.19;;;-9.54;59.62
43621;BME280;29213;50.770;7.298;2022-12-18T03:53:23;102157.72;;;-9.38;59.62
43621;BME280;29213;50.770;7.298;2022-12-18T03:55:51;102153.41;;;-9.32;58.65
43621;BME280;29213;50.770;7.298;2022-12-18T03:58:20;102088.81;;;-9.70;58.33
43621;BME280;29213;50.770;7.298;2022-12-18T04:00:49;102146.53;;;-9.29;57.92
43621;BME280;29213;50.770;7.298;2022-12-18T04:03:17;102076.78;;;-9.60;57.64
43621;BME280;29213;50.770;7.298;2022-12-18T04:05:45;102033.78;;;-9.78;56.57
43621;BME280;29213;50.770;7.298;2022-12-18T04:08:13;101952.06;;;-10.29;56.79
43621;BME280;29213;50.770;7.298;2022-12-18T04:10:38;102100.94;;;-9.30;56.23
43621;BME280;29213;50.770;7.298;2022-12-18T04:13:04;102010.56;;;-9.84;55.74
43621;BME280;29213;50.770;7.298;2022-12-18T04:15:32;102080.28;;;-9.52;56.02
43621;BME280;29213;50.770;7.298;2022-12-18T04:17:59;102093.16;;;-9.55;56.10
43621;BME280;29213;50.770;7.298;2022-12-18T04:20:24;102136.19;;;-9.47;56.11
43621;BME280;29213;50.770;7.298;2022-12-18T04:22:50;102137.03;;;-9.45;57.08
43621;BME280;29213;50.770;7.298;2022-12-18T04:25:15;102030.28;;;-10.07;57.31
43621;BME280;29213;50.770;7.298;2022-12-18T04:27:41;102067.28;;;-9.81;57.66
43621;BME280;29213;50.770;7.298;2022-12-18T04:30:07;102043.19;;;-9.94;57.75
43621;BME280;29213;50.770;7.298;2022-12-18T04:32:33;102063.03;;;-9.73;57.79
43621;BME280;29213;50.770;7.298;2022-12-18T04:34:59;102122.44;;;-9.46;58.18
43621;BME280;29213;50.770;7.298;2022-12-18T04:37:24;102061.28;;;-9.79;57.96
43621;BME280;29213;50.770;7.298;2022-12-18T04:39:50;102095.69;;;-9.75;59.32
43621;BME280;29213;50.770;7.298;2022-12-18T04:42:15;102091.34;;;-9.87;60.49
43621;BME280;29213;50.770;7.298;2022-12-18T04:44:41;102136.16;;;-9.51;60.89
43621;BME280;29213;50.770;7.298;2022-12-18T04:47:06;102071.53;;;-9.97;61.59
43621;BME280;29213;50.770;7.298;2022-12-18T04:49:32;102043.19;;;-10.11;61.23
43621;BME280;29213;50.770;7.298;2022-12-18T04:51:58;102045.75;;;-10.10;61.31
43621;BME280;29213;50.770;7.298;2022-12-18T04:54:23;102025.84;;;-10.44;61.44
43621;BME280;29213;50.770;7.298;2022-12-18T04:56:49;102149.00;;;-9.75;61.67
43621;BME280;29213;50.770;7.298;2022-12-18T04:59:14;102081.00;;;-10.04;61.55
43621;BME280;29213;50.770;7.298;2022-12-18T05:01:39;102058.59;;;-10.14;61.66
43621;BME280;29213;50.770;7.298;2022-12-18T05:04:05;102037.09;;;-10.20;61.61
43621;BME280;29213;50.770;7.298;2022-12-18T05:06:30;102068.97;;;-10.07;61.29
43621;BME280;29213;50.770;7.298;2022-12-18T05:08:56;102088.81;;;-9.74;60.89
43621;BME280;29213;50.770;7.298;2022-12-18T05:11:21;102118.06;;;-9.60;60.96
43621;BME280;29213;50.770;7.298;2022-12-18T05:13:47;102065.56;;;-9.82;60.90
43621;BME280;29213;50.770;7.298;2022-12-18T05:16:13;102121.56;;;-9.50;60.73
43621;BME280;29213;50.770;7.298;2022-12-18T05:18:39;102042.31;;;-9.99;61.63
43621;BME280;29213;50.770;7.298;2022-12-18T05:21:05;102031.13;;;-10.01;62.02
43621;BME280;29213;50.770;7.298;2022-12-18T05:23:30;101992.44;;;-10.28;62.73
43621;BME280;29213;50.770;7.298;2022-12-18T05:25:58;102112.94;;;-9.52;63.02
43621;BME280;29213;50.770;7.298;2022-12-18T05:28:26;102098.34;;;-9.41;62.76
43621;BME280;29213;50.770;7.298;2022-12-18T05:30:53;102110.44;;;-9.32;62.93
43621;BME280;29213;50.770;7.298;2022-12-18T05:33:20;101998.53;;;-9.87;62.49
43621;BME280;29213;50.770;7.298;2022-12-18T05:35:50;102111.28;;;-9.24;62.43
43621;BME280;29213;50.770;7.298;2022-12-18T05:38:19;102028.63;;;-9.73;62.08
43621;BME280;29213;50.770;7.298;2022-12-18T05:40:44;102064.78;;;-9.52;62.35
43621;BME280;29213;50.770;7.298;2022-12-18T05:43:10;102001.97;;;-9.83;62.13
43621;BME280;29213;50.770;7.298;2022-12-18T05:45:39;101985.63;;;-9.90;61.88
43621;BME280;29213;50.770;7.298;2022-12-18T05:48:05;102115.59;;;-9.02;61.69
43621;BME280;29213;50.770;7.298;2022-12-18T05:50:34;102070.84;;;-9.26;61.18
43621;BME280;29213;50.770;7.298;2022-12-18T05:52:59;102111.31;;;-8.92;60.86
43621;BME280;29213;50.770;7.298;2022-12-18T05:55:25;102022.66;;;-9.49;60.85
43621;BME280;29213;50.770;7.298;2022-12-18T05:57:51;101956.41;;;-9.80;60.34
43621;BME280;29213;50.770;7.298;2022-12-18T06:00:16;102069.97;;;-9.13;60.10
43621;BME280;29213;50.770;7.298;2022-12-18T06:02:42;102044.16;;;-9.25;60.04
43621;BME280;29213;50.770;7.298;2022-12-18T06:05:11;102132.81;;;-8.78;59.86
43621;BME280;29213;50.770;7.298;2022-12-18T06:07:36;102088.06;;;-8.94;59.90
43621;BME280;29213;50.770;7.298;2022-12-18T06:10:02;102051.06;;;-9.19;59.71
43621;BME280;29213;50.770;7.298;2022-12-18T06:12:27;102089.78;;;-9.01;59.79
43621;BME280;29213;50.770;7.298;2022-12-18T06:14:53;102134.56;;;-8.66;59.83
43621;BME280;29213;50.770;7.298;2022-12-18T06:17:18;102089.78;;;-8.77;59.28
43621;BME280;29213;50.770;7.298;2022-12-18T06:19:43;102094.09;;;-8.67;59.39
43621;BME280;29213;50.770;7.298;2022-12-18T06:22:09;102060.50;;;-8.72;58.91
43621;BME280;29213;50.770;7.298;2022-12-18T06:24:34;102026.94;;;-8.84;58.47
43621;BME280;29213;50.770;7.298;2022-12-18T06:27:00;102158.53;;;-7.92;58.14
43621;BME280;29213;50.770;7.298;2022-12-18T06:29:25;102095.72;;;-8.33;57.92
43621;BME280;29213;50.770;7.298;2022-12-18T06:31:51;102083.69;;;-8.45;57.34
43621;BME280;29213;50.770;7.298;2022-12-18T06:34:16;102082.84;;;-8.53;57.05
43621;BME280;29213;50.770;7.298;2022-12-18T06:36:42;102059.63;;;-8.66;56.81
43621;BME280;29213;50.770;7.298;2022-12-18T06:39:07;102165.47;;;-8.07;56.89
43621;BME280;29213;50.770;7.298;2022-12-18T06:41:33;102063.94;;;-8.70;57.16
43621;BME280;29213;50.770;7.298;2022-12-18T06:43:58;102162.03;;;-8.12;56.67
43621;BME280;29213;50.770;7.298;2022-12-18T06:46:23;102068.25;;;-8.87;56.68
43621;BME280;29213;50.770;7.298;2022-12-18T06:48:49;102094.94;;;-8.77;57.54
43621;BME280;29213;50.770;7.298;2022-12-18T06:51:17;102112.19;;;-8.81;57.23
43621;BME280;29213;50.770;7.298;2022-12-18T06:53:43;102028.69;;;-9.27;57.64
43621;BME280;29213;50.770;7.298;2022-12-18T06:56:08;102150.91;;;-8.62;58.72
43621;BME280;29213;50.770;7.298;2022-12-18T06:58:34;102146.59;;;-8.68;59.05
43621;BME280;29213;50.770;7.298;2022-12-18T07:01:04;101951.25;;;-9.89;59.14
43621;BME280;29213;50.770;7.298;2022-12-18T07:03:29;102128.53;;;-8.85;59.59
43621;BME280;29213;50.770;7.298;2022-12-18T07:05:55;102082.91;;;-9.10;59.68
43621;BME280;29213;50.770;7.298;2022-12-18T07:08:21;102062.25;;;-9.20;59.59
43621;BME280;29213;50.770;7.298;2022-12-18T07:10:46;102036.44;;;-9.34;60.17
43621;BME280;29213;50.770;7.298;2022-12-18T07:13:15;102146.59;;;-8.65;60.03
43621;BME280;29213;50.770;7.298;2022-12-18T07:15:40;101949.53;;;-9.78;60.05
43621;BME280;29213;50.770;7.298;2022-12-18T07:18:06;102153.50;;;-8.64;60.31
43621;BME280;29213;50.770;7.298;2022-12-18T07:20:31;102109.59;;;-8.81;60.35
43621;BME280;29213;50.770;7.298;2022-12-18T07:22:56;102119.91;;;-8.70;60.10
43621;BME280;29213;50.770;7.298;2022-12-18T07:25:23;102125.06;;;-8.58;60.04
43621;BME280;29213;50.770;7.298;2022-12-18T07:27:48;102132.78;;;-8.37;59.64
43621;BME280;29213;50.770;7.298;2022-12-18T07:30:14;101991.69;;;-9.13;59.08
43621;BME280;29213;50.770;7.298;2022-12-18T07:32:39;102102.63;;;-8.38;58.43
43621;BME280;29213;50.770;7.298;2022-12-18T07:35:05;102147.38;;;-8.11;58.23
43621;BME280;29213;50.770;7.298;2022-12-18T07:37:30;102086.28;;;-8.48;57.84
43621;BME280;29213;50.770;7.298;2022-12-18T07:39:56;102161.13;;;-7.91;57.86
43621;BME280;29213;50.770;7.298;2022-12-18T07:42:21;101991.63;;;-8.82;57.23
43621;BME280;29213;50.770;7.298;2022-12-18T07:44:55;102165.38;;;-7.77;57.08
43621;BME280;29213;50.770;7.298;2022-12-18T07:47:21;102149.91;;;-7.93;57.20
43621;BME280;29213;50.770;7.298;2022-12-18T07:49:47;102159.38;;;-7.79;56.79
43621;BME280;29213;50.770;7.298;2022-12-18T07:52:12;102112.03;;;-8.08;56.79
43621;BME280;29213;50.770;7.298;2022-12-18T07:54:38;102130.06;;;-7.87;56.47
43621;BME280;29213;50.770;7.298;2022-12-18T07:57:04;102106.00;;;-8.05;56.54
43621;BME280;29213;50.770;7.298;2022-12-18T07:59:29;102134.41;;;-8.00;56.52
43621;BME280;29213;50.770;7.298;2022-12-18T08:01:54;102050.13;;;-8.59;56.96
43621;BME280;29213;50.770;7.298;2022-12-18T08:04:20;101989.09;;;-9.02;56.79
43621;BME280;29213;50.770;7.298;2022-12-18T08:06:45;102118.16;;;-8.45;57.16
43621;BME280;29213;50.770;7.298;2022-12-18T08:09:11;101916.03;;;-9.53;58.32
43621;BME280;29213;50.770;7.298;2022-12-18T08:11:36;102125.03;;;-8.34;57.95
43621;BME280;29213;50.770;7.298;2022-12-18T08:14:02;102137.03;;;-8.02;59.79
43621;BME280;29213;50.770;7.298;2022-12-18T08:16:27;102113.78;;;-8.18;58.16
43621;BME280;29213;50.770;7.298;2022-12-18T08:18:53;102112.91;;;-8.10;58.00
43621;BME280;29213;50.770;7.298;2022-12-18T08:21:21;102100.84;;;-8.08;57.95
43621;BME280;29213;50.770;7.298;2022-12-18T08:23:49;101917.69;;;-9.25;58.02
43621;BME280;29213;50.770;7.298;2022-12-18T08:26:15;102108.63;;;-8.19;58.20
43621;BME280;29213;50.770;7.298;2022-12-18T08:28:41;102036.38;;;-8.69;58.57
43621;BME280;29213;50.770;7.298;2022-12-18T08:31:07;102104.34;;;-8.34;59.03
43621;BME280;29213;50.770;7.298;2022-12-18T08:33:33;102079.41;;;-8.54;59.98
43621;BME280;29213;50.770;7.298;2022-12-18T08:35:59;102026.97;;;-8.89;60.59
43621;BME280;29213;50.770;7.298;2022-12-18T08:38:25;101904.84;;;-9.52;60.28
43621;BME280;29213;50.770;7.298;2022-12-18T08:40:58;101945.22;;;-9.30;60.91
43621;BME280;29213;50.770;7.298;2022-12-18T08:43:24;102048.47;;;-8.76;61.23
43621;BME280;29213;50.770;7.298;2022-12-18T08:46:08;102046.69;;;-8.61;60.95
43621;BME280;29213;50.770;7.298;2022-12-18T08:48:34;102017.44;;;-8.70;60.88
43621;BME280;29213;50.770;7.298;2022-12-18T08:51:00;101953.78;;;-8.96;61.43
43621;BME280;29213;50.770;7.298;2022-12-18T08:53:26;102096.47;;;-7.95;61.28
43621;BME280;29213;50.770;7.298;2022-12-18T08:55:52;101656.63;;;-10.58;60.82
43621;BME280;29213;50.770;7.298;2022-12-18T08:58:17;102003.56;;;-8.42;61.07
43621;BME280;29213;50.770;7.298;2022-12-18T09:00:43;102037.94;;;-8.13;60.99
43621;BME280;29213;50.770;7.298;2022-12-18T09:03:16;102109.25;;;-7.63;60.83
43621;BME280;29213;50.770;7.298;2022-12-18T09:05:42;102071.41;;;-7.84;61.08
43621;BME280;29213;50.770;7.298;2022-12-18T09:08:08;101941.63;;;-8.62;61.46
43621;BME280;29213;50.770;7.298;2022-12-18T09:10:40;101991.47;;;-8.29;61.68
43621;BME280;29213;50.770;7.298;2022-12-18T09:13:06;102069.63;;;-7.71;61.59
43621;BME280;29213;50.770;7.298;2022-12-18T09:15:31;102016.34;;;-8.08;62.15
43621;BME280;29213;50.770;7.298;2022-12-18T09:17:56;102022.38;;;-7.99;61.63
43621;BME280;29213;50.770;7.298;2022-12-18T09:20:22;102060.13;;;-7.69;62.14
43621;BME280;29213;50.770;7.298;2022-12-18T09:22:47;101969.91;;;-8.25;62.30
43621;BME280;29213;50.770;7.298;2022-12-18T09:25:13;102011.97;;;-7.93;62.42
43621;BME280;29213;50.770;7.298;2022-12-18T09:27:38;102094.41;;;-7.31;62.13
43621;BME280;29213;50.770;7.298;2022-12-18T09:30:05;102009.25;;;-7.71;63.81
43621;BME280;29213;50.770;7.298;2022-12-18T09:32:30;102009.03;;;-7.42;64.20
43621;BME280;29213;50.770;7.298;2022-12-18T09:34:56;101970.13;;;-6.46;76.27
43621;BME280;29213;50.770;7.298;2022-12-18T09:37:21;101996.44;;;-5.49;64.57
43621;BME280;29213;50.770;7.298;2022-12-18T09:39:46;102031.28;;;-5.64;59.45
43621;BME280;29213;50.770;7.298;2022-12-18T09:42:21;102014.56;;;-6.07;59.85
43621;BME280;29213;50.770;7.298;2022-12-18T09:44:52;102065.38;;;-5.90;60.58
43621;BME280;29213;50.770;7.298;2022-12-18T09:47:30;101929.97;;;-6.88;60.47
43621;BME280;29213;50.770;7.298;2022-12-18T09:50:02;102015.03;;;-6.43;60.78
43621;BME280;29213;50.770;7.298;2022-12-18T09:52:44;102055.28;;;-6.12;61.51
43621;BME280;29213;50.770;7.298;2022-12-18T09:55:24;102045.00;;;-6.21;61.82
43621;BME280;29213;50.770;7.298;2022-12-18T09:57:55;102054.34;;;-6.08;61.83
43621;BME280;29213;50.770;7.298;2022-12-18T10:00:24;102052.63;;;-6.09;61.41
43621;BME280;29213;50.770;7.298;2022-12-18T10:02:53;101944.56;;;-6.79;61.39
43621;BME280;29213;50.770;7.298;2022-12-18T10:08:22;101988.16;;;-6.38;61.35
43621;BME280;29213;50.770;7.298;2022-12-18T10:10:52;102031.72;;;-5.96;61.43
43621;BME280;29213;50.770;7.298;2022-12-18T10:13:36;102028.41;;;-6.08;61.49
43621;BME280;29213;50.770;7.298;2022-12-18T10:16:24;102031.78;;;-6.01;61.65
43621;BME280;29213;50.770;7.298;2022-12-18T10:24:32;101951.94;;;-6.45;61.77
43621;BME280;29213;50.770;7.298;2022-12-18T10:27:09;101971.41;;;-6.12;61.42
43621;BME280;29213;50.770;7.298;2022-12-18T10:29:37;102030.72;;;-5.86;61.38
43621;BME280;29213;50.770;7.298;2022-12-18T10:32:02;101943.34;;;-6.48;61.61
43621;BME280;29213;50.770;7.298;2022-12-18T10:34:28;102022.91;;;-5.83;61.49
43621;BME280;29213;50.770;7.298;2022-12-18T10:36:54;102025.53;;;-5.86;61.65
43621;BME280;29213;50.770;7.298;2022-12-18T10:39:22;101970.66;;;-6.21;61.39
43621;BME280;29213;50.770;7.298;2022-12-18T10:41:48;101957.91;;;-6.39;61.47
43621;BME280;29213;50.770;7.298;2022-12-18T10:44:23;102011.09;;;-6.04;62.36
43621;BME280;29213;50.770;7.298;2022-12-18T10:47:03;102014.44;;;-5.99;62.25
43621;BME280;29213;50.770;7.298;2022-12-18T10:49:33;102014.31;;;-5.88;61.55
43621;BME280;29213;50.770;7.298;2022-12-18T10:52:19;102007.41;;;-5.89;61.90
43621;BME280;29213;50.770;7.298;2022-12-18T10:54:59;102008.25;;;-5.87;62.22
43621;BME280;29213;50.770;7.298;2022-12-18T10:57:40;102010.72;;;-5.78;61.40
43621;BME280;29213;50.770;7.298;2022-12-18T11:00:28;101965.19;;;-6.00;61.81
43621;BME280;29213;50.770;7.298;2022-12-18T11:02:55;102014.69;;;-5.53;62.03
43621;BME280;29213;50.770;7.298;2022-12-18T11:05:30;102012.13;;;-5.56;60.67
43621;BME280;29213;50.770;7.298;2022-12-18T11:08:01;102008.53;;;-5.48;61.05
43621;BME280;29213;50.770;7.298;2022-12-18T11:10:35;102005.25;;;-5.59;61.10
43621;BME280;29213;50.770;7.298;2022-12-18T11:13:15;102006.16;;;-5.63;61.59
43621;BME280;29213;50.770;7.298;2022-12-18T11:15:48;101994.13;;;-5.67;61.27
43621;BME280;29213;50.770;7.298;2022-12-18T11:18:17;102000.06;;;-5.59;61.45
43621;BME280;29213;50.770;7.298;2022-12-18T11:20:59;101997.56;;;-5.67;61.65
43621;BME280;29213;50.770;7.298;2022-12-18T11:23:26;101991.53;;;-5.67;61.99
43621;BME280;29213;50.770;7.298;2022-12-18T11:25:57;101941.56;;;-5.82;61.59
43621;BME280;29213;50.770;7.298;2022-12-18T11:28:34;101992.19;;;-5.54;61.71
43621;BME280;29213;50.770;7.298;2022-12-18T11:33:48;101961.97;;;-5.08;61.02
43621;BME280;29213;50.770;7.298;2022-12-18T11:36:16;101906.22;;;-5.37;59.80
43621;BME280;29213;50.770;7.298;2022-12-18T11:38:44;101881.59;;;-5.65;59.53
43621;BME280;29213;50.770;7.298;2022-12-18T11:41:34;101964.41;;;-4.97;60.10
43621;BME280;29213;50.770;7.298;2022-12-18T11:44:32;101941.66;;;-5.35;59.54
43621;BME280;29213;50.770;7.298;2022-12-18T11:47:40;101941.09;;;-5.52;59.90
43621;BME280;29213;50.770;7.298;2022-12-18T11:50:03;101976.91;;;-5.21;60.47
43621;BME280;29213;50.770;7.298;2022-12-18T11:52:40;101927.38;;;-5.61;60.55
43621;BME280;29213;50.770;7.298;2022-12-18T11:55:43;101989.53;;;-5.50;60.63
43621;BME280;29213;50.770;7.298;2022-12-18T11:58:52;101968.81;;;-5.54;61.24
43621;BME280;29213;50.770;7.298;2022-12-18T12:01:43;101889.19;;;-6.09;61.01
43621;BME280;29213;50.770;7.298;2022-12-18T12:25:18;101957.16;;;-5.30;60.96
43621;BME280;29213;50.770;7.298;2022-12-18T12:28:13;101959.41;;;-5.60;61.47
43621;BME280;29213;50.770;7.298;2022-12-18T12:33:56;101951.81;;;-5.74;61.93
43621;BME280;29213;50.770;7.298;2022-12-18T12:39:01;101888.63;;;-5.71;61.43
43621;BME280;29213;50.770;7.298;2022-12-18T12:41:32;101882.63;;;-5.73;60.80
43621;BME280;29213;50.770;7.298;2022-12-18T12:44:33;101853.69;;;-6.05;61.51
43621;BME280;29213;50.770;7.298;2022-12-18T12:47:17;101910.97;;;-5.61;61.67
43621;BME280;29213;50.770;7.298;2022-12-18T12:49:45;101903.72;;;-5.95;61.37
43621;BME280;29213;50.770;7.298;2022-12-18T12:52:35;101930.66;;;-5.49;61.65
43621;BME280;29213;50.770;7.298;2022-12-18T12:55:04;101914.34;;;-5.56;62.10
43621;BME280;29213;50.770;7.298;2022-12-18T12:57:39;101847.84;;;-5.65;62.32
43621;BME280;29213;50.770;7.298;2022-12-18T13:00:19;101912.22;;;-5.35;62.39
43621;BME280;29213;50.770;7.298;2022-12-18T13:03:06;101917.25;;;-5.24;62.64
43621;BME280;29213;50.770;7.298;2022-12-18T13:05:56;101851.94;;;-5.51;61.94
43621;BME280;29213;50.770;7.298;2022-12-18T13:08:32;101869.19;;;-5.49;61.93
43621;BME280;29213;50.770;7.298;2022-12-18T13:10:59;101850.50;;;-5.69;61.29
43621;BME280;29213;50.770;7.298;2022-12-18T13:13:51;101919.69;;;-5.67;61.71
43621;BME280;29213;50.770;7.298;2022-12-18T13:16:23;101848.38;;;-5.97;61.83
43621;BME280;29213;50.770;7.298;2022-12-18T13:18:51;101830.22;;;-5.97;61.72
43621;BME280;29213;50.770;7.298;2022-12-18T13:21:35;101853.38;;;-5.85;61.72
43621;BME280;29213;50.770;7.298;2022-12-18T13:24:27;101866.53;;;-5.96;62.29
43621;BME280;29213;50.770;7.298;2022-12-18T13:26:53;101858.88;;;-6.05;62.54
43621;BME280;29213;50.770;7.298;2022-12-18T13:32:19;101771.66;;;-6.66;62.76
43621;BME280;29213;50.770;7.298;2022-12-18T13:34:45;101841.88;;;-6.23;62.48
43621;BME280;29213;50.770;7.298;2022-12-18T13:37:35;101903.75;;;-5.98;62.93
43621;BME280;29213;50.770;7.298;2022-12-18T13:46:02;101905.47;;;-5.97;62.61
43621;BME280;29213;50.770;7.298;2022-12-18T13:48:29;101839.38;;;-6.30;62.71
43621;BME280;29213;50.770;7.298;2022-12-18T13:51:09;101913.09;;;-5.86;62.74
43621;BME280;29213;50.770;7.298;2022-12-18T13:53:43;101843.41;;;-6.10;67.11
43621;BME280;29213;50.770;7.298;2022-12-18T13:56:15;101814.97;;;-6.18;62.42
43621;BME280;29213;50.770;7.298;2022-12-18T13:58:41;101871.22;;;-6.20;62.68
43621;BME280;29213;50.770;7.298;2022-12-18T14:01:21;101854.91;;;-6.28;62.89
43621;BME280;29213;50.770;7.298;2022-12-18T14:03:48;101906.91;;;-5.78;62.62
43621;BME280;29213;50.770;7.298;2022-12-18T14:06:14;101850.25;;;-5.54;68.32